Terminal Aerodrome Forecast
Issued by NWS

Home | Current Version | Previous Version | Text Only | Print | Product List | Glossary On
Versions: 1 2 3 4 5 6 7 8 9 10 11 12 13 14 15
817
FTUS41 KBTV 232320
TAFRUT
TAF
KRUT 232320Z 2400/2424 VRB04KT P6SM SKC
     FM240500 13005KT P6SM SCT200
     FM240900 14008KT P6SM BKN070 OVC100
     FM241200 14010KT P6SM VCSH SCT030 OVC050
     FM241500 15010G19KT 2SM -SN BR SCT015 OVC025
     FM241700 17012G19KT 2SM -RASN BR BKN020 OVC030
     FM241900 18008G16KT 5SM -RA BR BKN025 OVC030=

USA.gov is the U.S. government's official web portal to all federal, state and local government web resources and services.